METAR

TAF

 




Curitiba / Bacacheri, PR - SBBI


20 de Setembro de 2014 às 01:00 (UTC)


Tempo:

Céu parcialmente nublado

Temperatura:

16ºC

Umidade Relativa:

88%

Localização:
Ajuste do Altímetro:

1014 hPa

Visibilidade Horizontal Predominante:

> 10 Km

Direção e Velocidade do Vento:

320° 5,56 Km/h


Observação Meteorológica:

METAR SBBI 200100Z 32003KT 9999 SCT030 BKN100 16/14 Q1014=